createdAt,value
2019-05-13T00:02:13.349Z,5.60
2019-05-13T00:04:44.199Z,5.60
2019-05-13T00:07:14.116Z,5.60
2019-05-13T00:09:44.336Z,5.60
2019-05-13T00:12:14.193Z,5.60
2019-05-13T00:14:44.403Z,5.50
2019-05-13T00:17:14.716Z,5.50
2019-05-13T00:19:44.538Z,5.50
2019-05-13T00:22:14.395Z,5.50
2019-05-13T00:24:44.470Z,5.60
2019-05-13T00:27:14.259Z,5.40
2019-05-13T00:29:44.702Z,5.40
2019-05-13T00:32:14.805Z,5.30
2019-05-13T00:34:44.685Z,5.20
2019-05-13T00:37:14.803Z,5.20
2019-05-13T00:39:44.918Z,5.30
2019-05-13T00:42:14.693Z,5.20
2019-05-13T00:44:44.923Z,5.20
2019-05-13T00:47:14.774Z,5.30
2019-05-13T00:49:44.592Z,5.20
2019-05-13T00:52:14.461Z,5.20
2019-05-13T00:54:44.340Z,5.10
2019-05-13T00:57:14.111Z,5.10
2019-05-13T00:59:44.457Z,5.00
2019-05-13T01:02:14.525Z,4.90
2019-05-13T01:04:44.346Z,4.80
2019-05-13T01:07:25.339Z,4.70
2019-05-13T01:09:45.896Z,4.70
2019-05-13T01:12:15.811Z,4.60
2019-05-13T01:14:45.636Z,4.70
2019-05-13T01:17:15.769Z,4.60
2019-05-13T01:19:45.546Z,4.60
2019-05-13T01:22:15.293Z,4.60
2019-05-13T01:24:45.559Z,4.70
2019-05-13T01:27:15.329Z,4.80
2019-05-13T01:29:45.091Z,4.80
2019-05-13T01:32:14.985Z,4.70
2019-05-13T01:34:45.109Z,4.60
2019-05-13T01:37:14.900Z,4.60
2019-05-13T01:39:44.829Z,4.60
2019-05-13T01:42:14.626Z,4.50
2019-05-13T01:44:44.475Z,4.50
2019-05-13T01:47:14.332Z,4.50
2019-05-13T01:49:44.421Z,4.50
2019-05-13T01:52:14.189Z,4.40
2019-05-13T01:54:44.352Z,4.30
2019-05-13T01:57:14.371Z,4.30
2019-05-13T01:59:44.489Z,4.30
2019-05-13T02:02:14.390Z,4.30
2019-05-13T02:04:44.346Z,4.30
2019-05-13T02:07:14.518Z,4.30
2019-05-13T02:09:44.796Z,4.30
2019-05-13T02:12:14.582Z,4.20
2019-05-13T02:14:44.657Z,4.20
2019-05-13T02:17:14.793Z,4.10
2019-05-13T02:19:44.566Z,4.10
2019-05-13T02:22:14.730Z,4.00
2019-05-13T02:24:44.854Z,4.00
2019-05-13T02:27:14.878Z,3.90
2019-05-13T02:29:44.648Z,3.90
2019-05-13T02:32:15.039Z,3.80
2019-05-13T02:34:44.849Z,3.90
2019-05-13T02:37:14.593Z,3.80
2019-05-13T02:39:44.704Z,3.80
2019-05-13T02:42:14.470Z,3.80
2019-05-13T02:44:44.241Z,3.80
2019-05-13T02:47:14.128Z,3.70
2019-05-13T02:49:44.187Z,3.70
2019-05-13T02:52:13.941Z,3.60
2019-05-13T02:54:43.823Z,3.70
2019-05-13T02:57:13.609Z,3.70
2019-05-13T02:59:43.710Z,3.70
2019-05-13T03:02:13.645Z,3.60
2019-05-13T03:04:43.744Z,3.70
2019-05-13T03:07:13.883Z,3.70
2019-05-13T03:09:43.805Z,3.70
2019-05-13T03:12:13.891Z,3.60
2019-05-13T03:14:48.082Z,3.70
2019-05-13T03:17:22.430Z,3.60
2019-05-13T03:19:53.214Z,3.60
2019-05-13T03:22:23.266Z,3.50
2019-05-13T03:24:53.528Z,3.40
2019-05-13T03:27:25.205Z,3.40
2019-05-13T03:29:54.717Z,3.40
2019-05-13T03:32:28.649Z,3.30
2019-05-13T03:34:57.146Z,3.40
2019-05-13T03:37:27.586Z,3.40
2019-05-13T03:39:58.927Z,3.40
2019-05-13T03:42:33.464Z,3.30
2019-05-13T03:45:03.733Z,3.30
2019-05-13T03:47:36.437Z,3.30
2019-05-13T03:50:07.239Z,3.30
2019-05-13T03:52:37.141Z,3.40
2019-05-13T03:55:07.145Z,3.40
2019-05-13T03:57:37.217Z,3.30
2019-05-13T04:00:07.526Z,3.30
2019-05-13T04:02:37.579Z,3.30
2019-05-13T04:05:07.613Z,3.30
2019-05-13T04:07:37.479Z,3.30
2019-05-13T04:10:08.270Z,3.30
2019-05-13T04:12:38.525Z,3.20
2019-05-13T04:15:08.524Z,3.20
2019-05-13T04:17:38.391Z,3.20
2019-05-13T04:20:12.377Z,3.20
2019-05-13T04:22:42.539Z,3.20
2019-05-13T04:25:12.782Z,3.10
2019-05-13T04:27:43.099Z,3.10
2019-05-13T04:30:13.686Z,3.20
2019-05-13T04:32:44.381Z,3.20
2019-05-13T04:35:14.400Z,3.30
2019-05-13T04:37:45.355Z,3.30
2019-05-13T04:40:23.095Z,3.30
2019-05-13T04:42:54.382Z,3.30
2019-05-13T04:45:26.950Z,3.30
2019-05-13T04:47:56.786Z,3.30
2019-05-13T04:50:26.590Z,3.40
2019-05-13T04:52:56.925Z,3.50
2019-05-13T04:55:26.803Z,3.50
2019-05-13T04:57:56.684Z,3.60
2019-05-13T05:01:08.878Z,3.70
2019-05-13T05:03:46.461Z,3.80
2019-05-13T05:06:33.317Z,3.70
2019-05-13T05:09:28.870Z,3.80
2019-05-13T05:12:58.857Z,3.90
2019-05-13T05:16:05.410Z,4.10
2019-05-13T05:19:07.059Z,4.20
2019-05-13T05:21:45.140Z,4.40
2019-05-13T05:25:07.913Z,4.40
2019-05-13T05:28:29.488Z,4.40
2019-05-13T05:31:33.504Z,4.60
2019-05-13T05:34:41.948Z,4.80
2019-05-13T05:37:47.745Z,5.00
2019-05-13T05:40:30.470Z,5.40
2019-05-13T05:42:52.793Z,5.60
2019-05-13T05:45:23.096Z,5.80
2019-05-13T05:47:54.413Z,6.00
2019-05-13T05:50:24.434Z,6.30
2019-05-13T05:52:56.419Z,6.50
2019-05-13T05:55:31.673Z,6.90
2019-05-13T05:58:03.137Z,7.30
2019-05-13T06:00:33.511Z,7.60
2019-05-13T06:03:05.060Z,7.80
2019-05-13T06:05:36.025Z,7.90
2019-05-13T06:08:06.616Z,8.10
2019-05-13T06:10:46.214Z,8.40
2019-05-13T06:13:08.238Z,8.80
2019-05-13T06:15:38.433Z,9.20
2019-05-13T06:18:08.217Z,9.40
2019-05-13T06:20:38.575Z,9.60
2019-05-13T06:23:08.649Z,9.80
2019-05-13T06:25:38.802Z,10.10
2019-05-13T06:28:08.618Z,10.40
2019-05-13T06:30:41.174Z,10.70
2019-05-13T06:33:12.039Z,10.80
2019-05-13T06:35:44.890Z,10.90
2019-05-13T06:38:14.082Z,11.20
2019-05-13T06:40:59.426Z,11.60
2019-05-13T06:43:16.745Z,12.00
2019-05-13T06:45:46.504Z,12.30
2019-05-13T06:48:16.309Z,12.70
2019-05-13T06:50:46.486Z,12.50
2019-05-13T06:53:16.716Z,12.30
2019-05-13T06:55:46.558Z,12.40
2019-05-13T06:58:16.432Z,12.60
2019-05-13T07:00:46.257Z,12.60
2019-05-13T07:03:16.057Z,12.90
2019-05-13T07:05:45.941Z,13.10
2019-05-13T07:08:16.065Z,12.80
2019-05-13T07:10:45.869Z,13.10
2019-05-13T07:13:15.989Z,13.30
2019-05-13T07:15:45.977Z,13.40
2019-05-13T07:18:16.461Z,13.60
2019-05-13T07:20:46.560Z,14.10
2019-05-13T07:23:16.742Z,14.30
2019-05-13T07:25:46.554Z,14.60
2019-05-13T07:28:16.581Z,14.80
2019-05-13T07:30:46.790Z,14.70
2019-05-13T07:33:16.684Z,14.90
2019-05-13T07:35:56.669Z,14.90
2019-05-13T07:38:22.204Z,15.20
2019-05-13T07:41:01.343Z,15.60
2019-05-13T07:43:31.999Z,15.30
2019-05-13T07:46:02.549Z,15.80
2019-05-13T07:48:32.450Z,16.10
2019-05-13T07:51:04.471Z,15.90
2019-05-13T07:53:34.237Z,16.20
2019-05-13T07:56:04.313Z,16.00
2019-05-13T07:58:37.371Z,16.50
2019-05-13T08:01:06.026Z,16.30
2019-05-13T08:03:35.914Z,16.80
2019-05-13T08:06:05.844Z,16.50
2019-05-13T08:08:35.729Z,17.00
2019-05-13T08:11:05.892Z,17.30
2019-05-13T08:13:35.999Z,17.20
2019-05-13T08:16:06.313Z,17.30
2019-05-13T08:18:36.190Z,17.40
2019-05-13T08:21:06.111Z,17.50
2019-05-13T08:23:36.160Z,17.50
2019-05-13T08:26:06.079Z,18.00
2019-05-13T08:28:36.286Z,18.00
2019-05-13T08:31:06.305Z,18.00
2019-05-13T08:33:38.588Z,18.00
2019-05-13T08:36:08.455Z,17.80
2019-05-13T08:38:38.671Z,18.10
2019-05-13T08:41:09.819Z,18.10
2019-05-13T08:43:41.909Z,17.70
2019-05-13T08:46:12.483Z,18.00
2019-05-13T08:48:42.961Z,18.00
2019-05-13T08:51:21.924Z,18.50
2019-05-13T08:53:51.632Z,18.90
2019-05-13T08:56:21.955Z,19.50
2019-05-13T08:58:52.300Z,18.80
2019-05-13T09:01:22.811Z,19.40
2019-05-13T09:03:53.032Z,19.00
2019-05-13T09:06:22.967Z,19.50
2019-05-13T09:08:54.441Z,19.90
2019-05-13T09:11:24.651Z,19.70
2019-05-13T09:13:54.775Z,19.40
2019-05-13T09:16:24.615Z,19.40
2019-05-13T09:18:54.774Z,19.50
2019-05-13T09:21:24.710Z,19.30
2019-05-13T09:23:54.813Z,19.20
2019-05-13T09:26:24.891Z,19.10
2019-05-13T09:28:54.728Z,19.70
2019-05-13T09:31:24.606Z,20.00
2019-05-13T09:33:54.615Z,19.80
2019-05-13T09:36:24.440Z,19.70
2019-05-13T09:38:54.646Z,20.00
2019-05-13T09:41:24.612Z,20.50
2019-05-13T09:43:54.426Z,21.00
2019-05-13T09:46:24.553Z,21.30
2019-05-13T09:49:11.508Z,20.90
2019-05-13T09:51:25.992Z,21.20
2019-05-13T09:53:55.806Z,21.60
2019-05-13T09:56:25.863Z,21.50
2019-05-13T09:58:55.662Z,21.30
2019-05-13T10:01:34.659Z,21.90
2019-05-13T10:04:12.586Z,22.30
2019-05-13T10:06:42.878Z,21.70
2019-05-13T10:09:13.190Z,21.60
2019-05-13T10:11:42.999Z,21.90
2019-05-13T10:14:13.123Z,22.10
2019-05-13T10:16:43.315Z,21.50
2019-05-13T10:19:14.638Z,21.00
2019-05-13T10:21:44.606Z,21.10
2019-05-13T10:24:14.774Z,21.50
2019-05-13T10:26:45.462Z,21.60
2019-05-13T10:29:22.278Z,21.40
2019-05-13T10:31:52.869Z,21.40
2019-05-13T10:34:23.124Z,21.40
2019-05-13T10:36:53.579Z,21.10
2019-05-13T10:39:23.680Z,21.80
2019-05-13T10:41:57.891Z,21.80
2019-05-13T10:44:27.788Z,22.00
2019-05-13T10:46:57.660Z,22.00
2019-05-13T10:49:27.730Z,22.00
2019-05-13T10:51:57.572Z,21.80
2019-05-13T10:54:27.381Z,22.10
2019-05-13T10:56:59.795Z,22.30
2019-05-13T10:59:30.023Z,23.00
2019-05-13T11:02:02.176Z,22.10
2019-05-13T11:04:32.691Z,21.60
2019-05-13T11:07:03.318Z,21.50
2019-05-13T11:09:33.414Z,22.20
2019-05-13T11:12:04.588Z,22.30
2019-05-13T11:14:34.962Z,22.20
2019-05-13T11:17:05.178Z,22.30
2019-05-13T11:19:37.054Z,22.30
2019-05-13T11:22:06.759Z,22.10
2019-05-13T11:24:37.053Z,22.30
2019-05-13T11:27:07.208Z,22.50
2019-05-13T11:29:41.431Z,21.70
2019-05-13T11:32:12.930Z,22.20
2019-05-13T11:34:42.481Z,22.20
2019-05-13T11:37:12.736Z,22.20
2019-05-13T11:39:43.004Z,22.60
2019-05-13T11:42:13.825Z,22.60
2019-05-13T11:44:43.858Z,23.10
2019-05-13T11:47:13.945Z,23.00
2019-05-13T11:49:44.055Z,22.90
2019-05-13T11:52:13.916Z,23.20
2019-05-13T11:54:43.841Z,23.30
2019-05-13T11:57:13.790Z,23.10
2019-05-13T11:59:43.696Z,23.00
2019-05-13T12:02:14.141Z,22.80
2019-05-13T12:04:44.177Z,23.10
2019-05-13T12:07:14.618Z,23.40
2019-05-13T12:09:44.725Z,23.30
2019-05-13T12:12:14.752Z,23.40
2019-05-13T12:15:16.129Z,23.80
2019-05-13T12:17:21.821Z,23.40
2019-05-13T12:19:54.014Z,23.50
2019-05-13T12:22:23.069Z,23.20
2019-05-13T12:24:53.195Z,23.30
2019-05-13T12:27:23.615Z,22.80
2019-05-13T12:29:53.699Z,22.80
2019-05-13T12:32:23.961Z,22.60
2019-05-13T12:34:53.741Z,23.10
2019-05-13T12:37:23.508Z,22.70
2019-05-13T12:39:53.840Z,22.80
2019-05-13T12:42:23.916Z,22.30
2019-05-13T12:45:08.416Z,22.00
2019-05-13T12:47:26.781Z,22.90
2019-05-13T12:50:02.756Z,23.00
2019-05-13T12:52:32.559Z,23.50
2019-05-13T12:55:03.532Z,23.20
2019-05-13T12:57:33.613Z,22.80
2019-05-13T13:00:03.924Z,22.90
2019-05-13T13:02:35.007Z,22.70
2019-05-13T13:05:09.376Z,22.40
2019-05-13T13:07:41.201Z,22.80
2019-05-13T13:10:08.692Z,22.40
2019-05-13T13:12:41.931Z,22.10
2019-05-13T13:15:35.900Z,21.80
2019-05-13T13:17:47.832Z,21.80
2019-05-13T13:20:23.975Z,21.90
2019-05-13T13:22:53.973Z,22.30
2019-05-13T13:25:25.254Z,22.30
2019-05-13T13:28:10.703Z,22.50
2019-05-13T13:30:35.187Z,23.30
2019-05-13T13:33:03.081Z,23.50
2019-05-13T13:35:34.471Z,23.30
2019-05-13T13:38:04.756Z,23.00
2019-05-13T13:40:35.703Z,22.30
2019-05-13T13:43:06.014Z,22.30
2019-05-13T13:46:05.920Z,22.60
2019-05-13T13:48:07.822Z,22.30
2019-05-13T13:50:37.903Z,22.10
2019-05-13T13:53:07.851Z,22.60
2019-05-13T13:55:38.045Z,22.40
2019-05-13T13:58:08.052Z,21.80
2019-05-13T14:00:52.537Z,21.80
2019-05-13T14:03:12.482Z,21.90
2019-05-13T14:05:42.989Z,21.80
2019-05-13T14:08:13.341Z,22.20
2019-05-13T14:10:43.865Z,22.80
2019-05-13T14:13:13.831Z,22.40
2019-05-13T14:15:43.612Z,22.20
2019-05-13T14:18:13.585Z,22.20
2019-05-13T14:20:43.565Z,22.40
2019-05-13T14:23:13.770Z,22.40
2019-05-13T14:25:44.217Z,22.60
2019-05-13T14:28:17.683Z,22.80
2019-05-13T14:30:45.735Z,22.30
2019-05-13T14:33:15.991Z,22.70
2019-05-13T14:35:45.958Z,22.70
2019-05-13T14:38:17.790Z,22.60
2019-05-13T14:40:48.010Z,22.40
2019-05-13T14:43:18.576Z,22.50
2019-05-13T14:45:48.375Z,22.50
2019-05-13T14:48:18.240Z,21.90
2019-05-13T14:50:49.544Z,21.70
2019-05-13T14:53:21.428Z,21.70
2019-05-13T14:55:51.870Z,21.60
2019-05-13T14:58:21.968Z,21.60
2019-05-13T15:01:10.779Z,21.20
2019-05-13T15:03:23.855Z,21.30
2019-05-13T15:05:53.756Z,21.30
2019-05-13T15:08:25.913Z,21.40
2019-05-13T15:10:55.521Z,21.40
2019-05-13T15:13:25.614Z,21.90
2019-05-13T15:15:55.537Z,22.20
2019-05-13T15:18:25.482Z,22.20
2019-05-13T15:20:55.653Z,21.90
2019-05-13T15:23:25.573Z,21.60
2019-05-13T15:25:55.593Z,21.90
2019-05-13T15:28:31.623Z,21.90
2019-05-13T15:31:01.373Z,21.50
2019-05-13T15:33:32.653Z,21.20
2019-05-13T15:36:05.551Z,20.80
2019-05-13T15:38:35.413Z,20.30
2019-05-13T15:41:06.322Z,20.80
2019-05-13T15:43:37.069Z,20.50
2019-05-13T15:46:06.863Z,21.10
2019-05-13T15:48:36.716Z,21.10
2019-05-13T15:51:06.600Z,21.30
2019-05-13T15:53:36.410Z,21.00
2019-05-13T15:56:06.458Z,21.20
2019-05-13T15:58:40.396Z,21.30
2019-05-13T16:01:08.417Z,20.90
2019-05-13T16:03:38.328Z,20.30
2019-05-13T16:06:09.568Z,20.50
2019-05-13T16:08:43.302Z,20.80
2019-05-13T16:11:13.183Z,20.80
2019-05-13T16:13:45.031Z,20.60
2019-05-13T16:16:21.529Z,20.10
2019-05-13T16:18:51.515Z,19.90
2019-05-13T16:21:21.664Z,19.80
2019-05-13T16:23:52.076Z,19.80
2019-05-13T16:26:22.750Z,19.60
2019-05-13T16:28:52.951Z,19.50
2019-05-13T16:31:23.077Z,19.20
2019-05-13T16:33:53.001Z,19.00
2019-05-13T16:36:22.814Z,19.40
2019-05-13T16:38:52.962Z,19.50
2019-05-13T16:41:22.960Z,19.20
2019-05-13T16:43:52.794Z,19.40
2019-05-13T16:46:22.797Z,19.40
2019-05-13T16:48:53.061Z,19.00
2019-05-13T16:51:22.887Z,18.50
2019-05-13T16:53:52.694Z,18.50
2019-05-13T16:56:29.472Z,18.30
2019-05-13T16:58:54.307Z,17.90
2019-05-13T17:01:24.084Z,17.40
2019-05-13T17:03:58.116Z,17.40
2019-05-13T17:06:28.403Z,17.20
2019-05-13T17:08:58.329Z,17.00
2019-05-13T17:11:28.831Z,17.00
2019-05-13T17:13:59.384Z,17.10
2019-05-13T17:16:31.640Z,17.10
2019-05-13T17:19:01.597Z,17.00
2019-05-13T17:21:31.754Z,16.80
2019-05-13T17:24:01.965Z,16.30
2019-05-13T17:26:32.674Z,16.00
2019-05-13T17:29:02.986Z,15.90
2019-05-13T17:31:32.733Z,15.80
2019-05-13T17:34:03.002Z,15.70
2019-05-13T17:36:32.864Z,15.50
2019-05-13T17:39:03.494Z,15.50
2019-05-13T17:41:33.465Z,15.40
2019-05-13T17:44:03.488Z,15.30
2019-05-13T17:46:33.446Z,15.50
2019-05-13T17:49:03.515Z,15.30
2019-05-13T17:51:33.338Z,15.10
2019-05-13T17:54:03.188Z,15.10
2019-05-13T17:56:33.210Z,15.30
2019-05-13T17:59:03.155Z,15.00
2019-05-13T18:01:32.997Z,14.80
2019-05-13T18:04:03.237Z,14.70
2019-05-13T18:06:33.069Z,14.60
2019-05-13T18:09:04.008Z,14.60
2019-05-13T18:11:33.838Z,14.50
2019-05-13T18:14:04.340Z,14.60
2019-05-13T18:16:34.588Z,14.40
2019-05-13T18:19:04.505Z,14.10
2019-05-13T18:21:34.384Z,14.10
2019-05-13T18:24:04.747Z,14.00
2019-05-13T18:26:34.769Z,14.00
2019-05-13T18:29:04.717Z,13.90
2019-05-13T18:31:34.516Z,13.80
2019-05-13T18:34:04.786Z,13.70
2019-05-13T18:36:34.625Z,13.50
2019-05-13T18:39:06.884Z,13.50
2019-05-13T18:41:36.930Z,13.40
2019-05-13T18:44:06.779Z,13.40
2019-05-13T18:46:36.583Z,13.40
2019-05-13T18:49:06.574Z,13.20
2019-05-13T18:51:42.058Z,13.20
2019-05-13T18:54:11.885Z,13.20
2019-05-13T18:56:42.084Z,13.20
2019-05-13T18:59:12.490Z,13.00
2019-05-13T19:01:47.490Z,12.80
2019-05-13T19:04:17.356Z,13.00
2019-05-13T19:06:47.160Z,13.00
2019-05-13T19:09:17.428Z,13.10
2019-05-13T19:11:47.330Z,12.70
2019-05-13T19:14:17.117Z,12.50
2019-05-13T19:16:47.104Z,12.50
2019-05-13T19:19:56.261Z,12.30
2019-05-13T19:25:47.741Z,12.20
2019-05-13T19:28:17.751Z,12.10
2019-05-13T19:30:47.670Z,11.90
2019-05-13T19:33:17.468Z,11.90
2019-05-13T19:35:47.662Z,11.80
2019-05-13T19:38:17.429Z,11.60
2019-05-13T19:40:47.169Z,11.60
2019-05-13T19:43:17.050Z,11.50
2019-05-13T19:45:46.856Z,11.60
2019-05-13T19:48:16.661Z,11.40
2019-05-13T19:50:46.964Z,11.50
2019-05-13T19:53:16.853Z,11.40
2019-05-13T19:55:46.649Z,11.40
2019-05-13T19:58:16.745Z,11.20
2019-05-13T20:00:46.581Z,11.10
2019-05-13T20:03:16.399Z,11.00
2019-05-13T20:05:46.652Z,10.80
2019-05-13T20:08:16.428Z,10.80
2019-05-13T20:10:46.275Z,10.70
2019-05-13T20:13:16.246Z,10.60
2019-05-13T20:15:46.039Z,10.50
2019-05-13T20:18:15.856Z,10.50
2019-05-13T20:20:46.038Z,10.60
2019-05-13T20:23:15.849Z,10.50
2019-05-13T20:25:47.349Z,10.60
2019-05-13T20:28:17.292Z,10.50
2019-05-13T20:30:47.120Z,10.40
2019-05-13T20:33:16.948Z,10.30
2019-05-13T20:35:46.892Z,10.20
2019-05-13T20:38:16.962Z,10.10
2019-05-13T20:40:46.764Z,10.00
2019-05-13T20:43:16.700Z,10.00
2019-05-13T20:45:46.538Z,10.00
2019-05-13T20:48:16.713Z,10.00
2019-05-13T20:50:46.756Z,9.90
2019-05-13T20:53:16.565Z,9.80
2019-05-13T20:55:46.609Z,9.80
2019-05-13T20:58:16.649Z,9.70
2019-05-13T21:00:46.529Z,9.70
2019-05-13T21:03:17.233Z,9.80
2019-05-13T21:05:47.548Z,9.70
2019-05-13T21:08:17.464Z,9.80
2019-05-13T21:10:47.711Z,9.70
2019-05-13T21:13:17.826Z,9.70
2019-05-13T21:15:48.165Z,9.70
2019-05-13T21:18:18.136Z,9.70
2019-05-13T21:20:48.746Z,9.60
2019-05-13T21:23:18.715Z,9.60
2019-05-13T21:25:50.908Z,9.70
2019-05-13T21:28:22.099Z,9.50
2019-05-13T21:30:52.254Z,9.40
2019-05-13T21:33:22.323Z,9.30
2019-05-13T21:35:52.356Z,9.10
2019-05-13T21:38:22.429Z,9.10
2019-05-13T21:40:52.623Z,9.10
2019-05-13T21:43:22.692Z,9.00
2019-05-13T21:45:52.624Z,9.10
2019-05-13T21:48:22.498Z,9.10
2019-05-13T21:50:52.530Z,9.00
2019-05-13T21:53:24.508Z,9.00
2019-05-13T21:55:54.233Z,9.00
2019-05-13T21:58:24.448Z,8.90
2019-05-13T22:00:54.922Z,8.80
2019-05-13T22:03:24.909Z,8.80
2019-05-13T22:05:54.853Z,8.90
2019-05-13T22:08:24.946Z,9.00
2019-05-13T22:10:55.191Z,8.90
2019-05-13T22:13:25.110Z,9.00
2019-05-13T22:15:55.058Z,8.80
2019-05-13T22:18:24.977Z,8.80
2019-05-13T22:20:55.133Z,8.80
2019-05-13T22:23:25.349Z,8.80
2019-05-13T22:25:55.306Z,8.70
2019-05-13T22:28:25.212Z,8.60
2019-05-13T22:30:55.205Z,8.60
2019-05-13T22:33:25.234Z,8.60
2019-05-13T22:35:55.287Z,8.60
2019-05-13T22:38:25.099Z,8.40
2019-05-13T22:40:56.201Z,8.20
2019-05-13T22:43:26.252Z,8.20
2019-05-13T22:45:56.032Z,8.10
2019-05-13T22:48:25.868Z,8.10
2019-05-13T22:50:55.713Z,8.00
2019-05-13T22:53:25.561Z,8.10
2019-05-13T22:55:55.605Z,8.00
2019-05-13T22:58:25.528Z,7.90
2019-05-13T23:00:55.385Z,7.90
2019-05-13T23:03:25.466Z,8.00
2019-05-13T23:05:55.403Z,7.90
2019-05-13T23:08:25.172Z,7.70
2019-05-13T23:10:54.968Z,7.70
2019-05-13T23:13:25.183Z,7.60
2019-05-13T23:15:54.950Z,7.50
2019-05-13T23:18:24.726Z,7.60
2019-05-13T23:20:54.669Z,7.60
2019-05-13T23:23:24.415Z,7.50
2019-05-13T23:25:56.662Z,7.40
2019-05-13T23:28:25.628Z,7.40
2019-05-13T23:30:55.764Z,7.40
2019-05-13T23:33:25.530Z,7.40
2019-05-13T23:35:55.424Z,7.40
2019-05-13T23:38:25.173Z,7.30
2019-05-13T23:40:54.989Z,7.20
2019-05-13T23:43:24.810Z,7.10
2019-05-13T23:45:54.852Z,7.10
2019-05-13T23:48:24.612Z,7.00
2019-05-13T23:50:54.673Z,7.00
2019-05-13T23:53:24.590Z,7.00
2019-05-13T23:55:54.693Z,7.00
2019-05-13T23:58:24.544Z,6.90
